Historyczne dane pomiarowe

Dodano dane terminowe – wersja testowa.

Dane z okresu 1951-2019

Wersja bazy: 1.34 [2019-03-16, lista zmian], aktualizacja planowana na 2019-04-15

Dane meteo z obszaru Polski uzyskane na podstawie danych udostępnionych przez Instytut Meteorologii i Gospodarki Wodnej – Państwowy Instytut Badawczy.

 

Wybierz Datę:    

       

TemperaturaWilgotnośćWiatrCiśnienieOpadyŚniegCzas trwania zjawisk
 Stacja t tx tn tng RH VA  wxwx mslp ppp RRR   cm mm wxwxwxwxwxwxwx
1983-08-14 14.2 18.7 8.5 6.7-- 2.7 3.0---- 0.0------------
1983-08-13 14.8 22.2 13.0 11.7-- 7.3 3.0---- 7.3------------
1983-08-12 20.4 26.6 15.0 13.0-- 0.3 2.0---- 1.9------------
1983-08-11 19.8 24.5 14.7 13.4-- 0.7 0.7---- 0.0------------
1983-08-10 19.6 25.5 12.5 10.1-- 2.0 1.7---- 0.3------------
1983-08-09 19.7 26.0 14.2 13.0-- 1.0 2.0---- 0.0------------
1983-08-08 18.0 24.3 13.2 12.0-- 5.7 3.0---- 19.0------------
1983-08-07 18.5 25.0 14.5 12.8-- 6.0 0.7---- 0.4------------
1983-08-06 15.7 21.3 8.5 6.3-- 0.3 1.3---- 10.9------------
1983-08-05 13.7 19.0 11.0 10.2-- 3.0 2.0---- 0.0------------
1983-08-04 13.2 22.5 12.3 12.3-- 7.7 3.0---- 26.1------------
1983-08-03 20.2 24.2 17.5 16.3-- 8.0 1.0---- 3.3------------
1983-08-02 21.1 29.1 13.2 10.8-- 0.0 1.7---- 8.0------------
1983-08-01 20.1 27.7 10.0 8.4-- 0.7 4.3---- 0.0------------
1983-07-31 18.0 24.3 9.0 6.1-- 0.7 0.7---- 0.0------------
1983-07-30 17.7 22.0 14.8 12.1-- 4.3 2.7---- 0.0------------
1983-07-29 19.7 25.5 13.9 11.8-- 4.3 3.3---- 0.5------------
1983-07-28 23.7 28.5 18.6 17.6-- 1.7 5.7---- 0.0------------
1983-07-27 23.4 31.0 14.5 12.1-- 0.0 1.0---- 0.0------------
1983-07-26 21.0 28.0 14.7 13.0-- 1.7 2.0---- 0.0------------
1983-07-25 15.4 20.5 9.9 8.6-- 3.0 2.3---- 0.0------------
1983-07-24 15.7 18.8 13.2 11.6-- 6.7 1.0---- 0.1------------
1983-07-23 16.3 21.4 12.4 11.1-- 5.3 4.7---- 2.6------------
1983-07-22 14.4 19.3 10.6 8.7-- 5.0 4.3---- 0.6------------
1983-07-21 12.8 17.5 9.3 8.4-- 4.0 5.0---- 0.0------------
1983-07-20 15.0 23.0 11.3 8.9-- 5.3 2.7---- 10.9------------
1983-07-19 23.6 28.0 17.1 15.6-- 1.7 1.7---- 2.1------------
1983-07-18 21.6 29.7 10.1 8.1-- 0.0 1.0---- 0.0------------
1983-07-17 19.4 24.8 14.5 12.1-- 3.0 1.0---- 0.0------------
1983-07-16 21.6 29.4 12.6 9.7-- 0.3 1.3---- 0.0------------
1983-07-15 19.1 24.9 10.9 9.6-- 0.3 1.0---- 0.0------------
1983-07-14 18.1 24.5 16.0 14.8-- 8.0 1.0---- 20.4------------
1983-07-13 19.4 26.8 13.4 10.9-- 5.0 2.0---- 3.8------------
1983-07-12 19.2 25.1 11.0 14.2-- 2.7 2.0---- 2.7------------
1983-07-11 19.3 24.2 15.9 13.6-- 4.3 1.0---- 3.5------------
1983-07-10 21.1 28.6 11.5 9.1-- 0.7 2.0---- 0.0------------
1983-07-09 20.8 28.0 11.6 9.5-- 0.0 0.0---- 0.0------------
1983-07-08 18.5 26.0 6.5 4.6-- 0.3 0.7---- 0.0------------
1983-07-07 20.4 27.0 11.5 8.1-- 0.0 0.7---- 0.0------------
1983-07-06 20.0 27.5 8.7 6.4-- 0.0 0.3---- 0.0------------
1983-07-05 18.5 24.5 11.5 9.6-- 0.0 1.3---- 0.0------------
1983-07-04 19.1 26.5 9.0 7.1-- 0.7 0.3---- 0.0------------
1983-07-03 18.2 23.6 8.5 6.5-- 0.7 0.7---- 0.0------------
1983-07-02 17.8 22.8 11.1 9.6-- 3.0 2.0---- 0.0------------
1983-07-01 19.2 26.7 9.4 6.4-- 0.3 1.7---- 0.0------------
1983-06-30 16.4 23.5 6.2 3.9-- 0.3 3.0---- 0.0------------
1983-06-29 14.0 19.5 5.5 3.6-- 0.3 1.3---- 0.0------------
1983-06-28 16.0 23.2 14.5 12.8-- 8.0 2.0---- 5.8------------
1983-06-27 20.4 27.1 12.0 9.6-- 6.7 2.0---- 5.9------------
1983-06-26 20.3 25.0 14.3 11.8-- 1.7 1.3---- 0.0------------
1983-06-25 21.1 28.5 11.0 7.6-- 3.0 4.7---- 0.1------------
1983-06-24 18.0 25.5 4.6 2.1-- 0.0 0.3---- 0.0------------
1983-06-23 14.8 21.5 3.6 1.4-- 0.0 0.7---- 0.0------------
1983-06-22 13.8 20.8 6.7 4.1-- 0.0 3.0---- 0.0------------
1983-06-21 17.8 23.0 9.0 7.1-- 0.3 1.3---- 0.0------------
1983-06-20 18.9 23.5 14.5 13.1-- 3.0 1.3---- 0.0------------
1983-06-19 15.7 18.7 12.9 12.6-- 8.0 2.3---- 0.2------------
1983-06-18 13.1 15.5 11.5 11.1-- 8.0 3.0---- 2.9------------
1983-06-17 12.5 16.8 7.4 5.6-- 4.3 4.0---- 2.3------------
1983-06-16 12.0 15.0 9.5 9.6-- 7.3 3.7---- 0.4------------
1111.4 ms

 

Źródłem pochodzenia danych jest Instytut Meteorologii i Gospodarki Wodnej – Państwowy Instytut Badawczy. Dane Instytutu Meteorologii i Gospodarki Wodnej – Państwowego Instytutu Badawczego zostały przetworzone.

Dane źródłowe można odnaleźć na stronie https://dane.imgw.pl